sensor_id;sensor_type;location;lat;lon;timestamp;P1;durP1;ratioP1;P2;durP2;ratioP2
19877;SDS011;10101;52.204;9.910;2023-05-10T00:00:27;4.03;;;2.00;;
19877;SDS011;10101;52.204;9.910;2023-05-10T00:02:54;3.23;;;2.20;;
19877;SDS011;10101;52.204;9.910;2023-05-10T00:05:20;2.47;;;2.10;;
19877;SDS011;10101;52.204;9.910;2023-05-10T00:07:47;4.93;;;2.30;;
19877;SDS011;10101;52.204;9.910;2023-05-10T00:10:14;3.77;;;2.00;;
19877;SDS011;10101;52.204;9.910;2023-05-10T00:12:42;3.43;;;2.10;;
19877;SDS011;10101;52.204;9.910;2023-05-10T00:15:09;4.33;;;2.13;;
19877;SDS011;10101;52.204;9.910;2023-05-10T00:17:36;5.00;;;2.40;;
19877;SDS011;10101;52.204;9.910;2023-05-10T00:20:03;5.90;;;1.80;;
19877;SDS011;10101;52.204;9.910;2023-05-10T00:22:30;3.13;;;2.10;;
19877;SDS011;10101;52.204;9.910;2023-05-10T00:24:57;2.83;;;2.10;;
19877;SDS011;10101;52.204;9.910;2023-05-10T00:27:24;5.97;;;2.23;;
19877;SDS011;10101;52.204;9.910;2023-05-10T00:29:52;3.80;;;2.07;;
19877;SDS011;10101;52.204;9.910;2023-05-10T00:32:19;3.33;;;2.27;;
19877;SDS011;10101;52.204;9.910;2023-05-10T00:34:46;4.10;;;2.20;;
19877;SDS011;10101;52.204;9.910;2023-05-10T00:37:13;3.43;;;2.20;;
19877;SDS011;10101;52.204;9.910;2023-05-10T00:39:39;2.70;;;2.40;;
19877;SDS011;10101;52.204;9.910;2023-05-10T00:42:06;2.87;;;2.47;;
19877;SDS011;10101;52.204;9.910;2023-05-10T00:44:33;2.50;;;2.17;;
19877;SDS011;10101;52.204;9.910;2023-05-10T00:47:01;3.27;;;2.27;;
19877;SDS011;10101;52.204;9.910;2023-05-10T00:49:28;3.20;;;2.37;;
19877;SDS011;10101;52.204;9.910;2023-05-10T00:51:56;2.57;;;2.10;;
19877;SDS011;10101;52.204;9.910;2023-05-10T00:54:23;3.10;;;2.47;;
19877;SDS011;10101;52.204;9.910;2023-05-10T00:56:50;3.57;;;2.10;;
19877;SDS011;10101;52.204;9.910;2023-05-10T00:59:17;4.47;;;2.30;;
19877;SDS011;10101;52.204;9.910;2023-05-10T01:01:45;3.23;;;2.17;;
19877;SDS011;10101;52.204;9.910;2023-05-10T01:04:13;4.73;;;2.43;;
19877;SDS011;10101;52.204;9.910;2023-05-10T01:06:41;3.90;;;2.37;;
19877;SDS011;10101;52.204;9.910;2023-05-10T01:09:08;7.40;;;2.47;;
19877;SDS011;10101;52.204;9.910;2023-05-10T01:11:37;4.60;;;2.03;;
19877;SDS011;10101;52.204;9.910;2023-05-10T01:14:04;3.70;;;2.27;;
19877;SDS011;10101;52.204;9.910;2023-05-10T01:16:32;3.07;;;2.17;;
19877;SDS011;10101;52.204;9.910;2023-05-10T01:19:02;2.23;;;2.00;;
19877;SDS011;10101;52.204;9.910;2023-05-10T01:21:37;3.40;;;2.37;;
19877;SDS011;10101;52.204;9.910;2023-05-10T01:24:12;5.37;;;2.63;;
19877;SDS011;10101;52.204;9.910;2023-05-10T01:33:01;3.87;;;2.40;;
19877;SDS011;10101;52.204;9.910;2023-05-10T01:35:35;4.23;;;2.60;;
19877;SDS011;10101;52.204;9.910;2023-05-10T01:38:07;3.90;;;2.40;;
19877;SDS011;10101;52.204;9.910;2023-05-10T01:40:39;2.90;;;2.50;;
19877;SDS011;10101;52.204;9.910;2023-05-10T01:43:16;4.13;;;2.80;;
19877;SDS011;10101;52.204;9.910;2023-05-10T01:45:50;3.77;;;2.83;;
19877;SDS011;10101;52.204;9.910;2023-05-10T01:48:23;3.13;;;2.60;;
19877;SDS011;10101;52.204;9.910;2023-05-10T01:50:53;3.17;;;2.40;;
19877;SDS011;10101;52.204;9.910;2023-05-10T01:53:22;3.73;;;2.67;;
19877;SDS011;10101;52.204;9.910;2023-05-10T01:55:50;4.77;;;2.57;;
19877;SDS011;10101;52.204;9.910;2023-05-10T01:58:21;3.30;;;2.70;;
19877;SDS011;10101;52.204;9.910;2023-05-10T02:00:51;3.77;;;2.43;;
19877;SDS011;10101;52.204;9.910;2023-05-10T02:03:21;4.37;;;2.53;;
19877;SDS011;10101;52.204;9.910;2023-05-10T02:05:50;4.20;;;2.90;;
19877;SDS011;10101;52.204;9.910;2023-05-10T02:08:19;3.93;;;2.93;;
19877;SDS011;10101;52.204;9.910;2023-05-10T02:10:48;4.73;;;2.70;;
19877;SDS011;10101;52.204;9.910;2023-05-10T02:13:17;6.60;;;2.93;;
19877;SDS011;10101;52.204;9.910;2023-05-10T02:15:45;4.10;;;2.50;;
19877;SDS011;10101;52.204;9.910;2023-05-10T02:18:14;4.10;;;3.00;;
19877;SDS011;10101;52.204;9.910;2023-05-10T02:20:43;5.60;;;2.83;;
19877;SDS011;10101;52.204;9.910;2023-05-10T02:23:12;4.63;;;2.97;;
19877;SDS011;10101;52.204;9.910;2023-05-10T02:25:40;2.97;;;2.40;;
19877;SDS011;10101;52.204;9.910;2023-05-10T02:28:09;3.47;;;2.63;;
19877;SDS011;10101;52.204;9.910;2023-05-10T02:30:38;3.87;;;3.03;;
19877;SDS011;10101;52.204;9.910;2023-05-10T02:33:05;4.20;;;3.13;;
19877;SDS011;10101;52.204;9.910;2023-05-10T02:35:33;6.77;;;3.30;;
19877;SDS011;10101;52.204;9.910;2023-05-10T02:38:02;3.87;;;3.10;;
19877;SDS011;10101;52.204;9.910;2023-05-10T02:40:29;4.87;;;3.30;;
19877;SDS011;10101;52.204;9.910;2023-05-10T02:42:57;3.90;;;2.67;;
19877;SDS011;10101;52.204;9.910;2023-05-10T02:45:27;3.83;;;3.00;;
19877;SDS011;10101;52.204;9.910;2023-05-10T02:47:57;4.40;;;3.20;;
19877;SDS011;10101;52.204;9.910;2023-05-10T02:50:25;5.30;;;3.37;;
19877;SDS011;10101;52.204;9.910;2023-05-10T02:52:56;3.67;;;2.70;;
19877;SDS011;10101;52.204;9.910;2023-05-10T02:55:29;4.30;;;3.00;;
19877;SDS011;10101;52.204;9.910;2023-05-10T02:57:59;5.37;;;3.20;;
19877;SDS011;10101;52.204;9.910;2023-05-10T03:00:27;5.23;;;3.47;;
19877;SDS011;10101;52.204;9.910;2023-05-10T03:02:54;5.23;;;3.10;;
19877;SDS011;10101;52.204;9.910;2023-05-10T03:05:21;3.80;;;3.10;;
19877;SDS011;10101;52.204;9.910;2023-05-10T03:07:48;4.90;;;3.40;;
19877;SDS011;10101;52.204;9.910;2023-05-10T03:10:16;5.80;;;3.67;;
19877;SDS011;10101;52.204;9.910;2023-05-10T03:12:50;5.40;;;3.50;;
19877;SDS011;10101;52.204;9.910;2023-05-10T03:15:25;4.63;;;3.40;;
19877;SDS011;10101;52.204;9.910;2023-05-10T03:18:04;3.97;;;3.20;;
19877;SDS011;10101;52.204;9.910;2023-05-10T03:20:36;6.10;;;3.70;;
19877;SDS011;10101;52.204;9.910;2023-05-10T03:23:07;5.20;;;3.50;;
19877;SDS011;10101;52.204;9.910;2023-05-10T03:25:38;4.73;;;3.57;;
19877;SDS011;10101;52.204;9.910;2023-05-10T03:28:07;4.33;;;3.50;;
19877;SDS011;10101;52.204;9.910;2023-05-10T03:30:34;6.47;;;3.50;;
19877;SDS011;10101;52.204;9.910;2023-05-10T03:33:04;5.83;;;4.10;;
19877;SDS011;10101;52.204;9.910;2023-05-10T03:35:31;4.73;;;3.60;;
19877;SDS011;10101;52.204;9.910;2023-05-10T03:37:58;5.03;;;3.53;;
19877;SDS011;10101;52.204;9.910;2023-05-10T03:40:25;6.70;;;3.70;;
19877;SDS011;10101;52.204;9.910;2023-05-10T03:42:53;4.40;;;3.47;;
19877;SDS011;10101;52.204;9.910;2023-05-10T03:45:21;5.27;;;3.57;;
19877;SDS011;10101;52.204;9.910;2023-05-10T03:47:48;4.37;;;3.37;;
19877;SDS011;10101;52.204;9.910;2023-05-10T03:50:15;4.83;;;3.50;;
19877;SDS011;10101;52.204;9.910;2023-05-10T03:52:43;4.20;;;3.37;;
19877;SDS011;10101;52.204;9.910;2023-05-10T03:55:10;4.87;;;3.60;;
19877;SDS011;10101;52.204;9.910;2023-05-10T03:57:37;5.43;;;3.90;;
19877;SDS011;10101;52.204;9.910;2023-05-10T04:00:04;4.50;;;3.53;;
19877;SDS011;10101;52.204;9.910;2023-05-10T04:02:32;5.30;;;3.60;;
19877;SDS011;10101;52.204;9.910;2023-05-10T04:04:59;4.10;;;3.60;;
19877;SDS011;10101;52.204;9.910;2023-05-10T04:07:26;6.47;;;4.00;;
19877;SDS011;10101;52.204;9.910;2023-05-10T04:09:53;9.73;;;4.63;;
19877;SDS011;10101;52.204;9.910;2023-05-10T04:12:19;4.87;;;4.30;;
19877;SDS011;10101;52.204;9.910;2023-05-10T04:14:46;6.67;;;4.23;;
19877;SDS011;10101;52.204;9.910;2023-05-10T04:17:13;5.53;;;4.37;;
19877;SDS011;10101;52.204;9.910;2023-05-10T04:19:41;5.83;;;4.20;;
19877;SDS011;10101;52.204;9.910;2023-05-10T04:22:13;7.97;;;3.97;;
19877;SDS011;10101;52.204;9.910;2023-05-10T04:24:48;6.77;;;4.23;;
19877;SDS011;10101;52.204;9.910;2023-05-10T04:27:17;6.40;;;4.37;;
19877;SDS011;10101;52.204;9.910;2023-05-10T04:29:47;7.50;;;4.87;;
19877;SDS011;10101;52.204;9.910;2023-05-10T04:32:15;6.73;;;4.50;;
19877;SDS011;10101;52.204;9.910;2023-05-10T04:35:03;5.80;;;4.43;;
19877;SDS011;10101;52.204;9.910;2023-05-10T04:37:37;7.27;;;4.80;;
19877;SDS011;10101;52.204;9.910;2023-05-10T04:40:23;6.50;;;4.93;;
19877;SDS011;10101;52.204;9.910;2023-05-10T04:42:55;9.30;;;4.83;;
19877;SDS011;10101;52.204;9.910;2023-05-10T04:45:27;6.63;;;5.10;;
19877;SDS011;10101;52.204;9.910;2023-05-10T04:47:59;6.03;;;4.20;;
19877;SDS011;10101;52.204;9.910;2023-05-10T04:50:27;3.97;;;3.57;;
19877;SDS011;10101;52.204;9.910;2023-05-10T04:52:56;5.63;;;4.03;;
19877;SDS011;10101;52.204;9.910;2023-05-10T04:55:23;7.30;;;4.83;;
19877;SDS011;10101;52.204;9.910;2023-05-10T04:57:51;7.00;;;4.90;;
19877;SDS011;10101;52.204;9.910;2023-05-10T05:00:20;6.17;;;4.27;;
19877;SDS011;10101;52.204;9.910;2023-05-10T05:02:50;6.67;;;3.93;;
19877;SDS011;10101;52.204;9.910;2023-05-10T05:05:20;6.00;;;4.53;;
19877;SDS011;10101;52.204;9.910;2023-05-10T05:07:48;6.27;;;4.50;;
19877;SDS011;10101;52.204;9.910;2023-05-10T05:10:16;7.97;;;4.47;;
19877;SDS011;10101;52.204;9.910;2023-05-10T05:12:45;11.10;;;4.70;;
19877;SDS011;10101;52.204;9.910;2023-05-10T05:15:12;8.57;;;5.17;;
19877;SDS011;10101;52.204;9.910;2023-05-10T05:17:41;7.03;;;4.83;;
19877;SDS011;10101;52.204;9.910;2023-05-10T05:20:09;6.77;;;5.00;;
19877;SDS011;10101;52.204;9.910;2023-05-10T05:22:41;9.00;;;5.40;;
19877;SDS011;10101;52.204;9.910;2023-05-10T05:25:13;6.40;;;5.20;;
19877;SDS011;10101;52.204;9.910;2023-05-10T05:27:55;8.07;;;4.60;;
19877;SDS011;10101;52.204;9.910;2023-05-10T05:30:32;7.97;;;4.27;;
19877;SDS011;10101;52.204;9.910;2023-05-10T05:33:08;7.27;;;4.37;;
19877;SDS011;10101;52.204;9.910;2023-05-10T05:35:40;7.30;;;4.57;;
19877;SDS011;10101;52.204;9.910;2023-05-10T05:38:15;5.10;;;3.83;;
19877;SDS011;10101;52.204;9.910;2023-05-10T05:41:01;5.60;;;4.17;;
19877;SDS011;10101;52.204;9.910;2023-05-10T05:43:36;4.87;;;4.00;;
19877;SDS011;10101;52.204;9.910;2023-05-10T05:46:07;4.27;;;3.40;;
19877;SDS011;10101;52.204;9.910;2023-05-10T05:48:39;4.30;;;3.67;;
19877;SDS011;10101;52.204;9.910;2023-05-10T05:51:12;5.87;;;3.60;;
19877;SDS011;10101;52.204;9.910;2023-05-10T05:53:53;4.23;;;3.53;;
19877;SDS011;10101;52.204;9.910;2023-05-10T05:59:16;4.87;;;4.07;;
19877;SDS011;10101;52.204;9.910;2023-05-10T06:02:04;7.87;;;3.90;;
19877;SDS011;10101;52.204;9.910;2023-05-10T06:04:32;5.70;;;4.10;;
19877;SDS011;10101;52.204;9.910;2023-05-10T06:06:59;6.33;;;4.17;;
19877;SDS011;10101;52.204;9.910;2023-05-10T06:09:28;5.87;;;4.20;;
19877;SDS011;10101;52.204;9.910;2023-05-10T06:11:59;6.23;;;4.33;;
19877;SDS011;10101;52.204;9.910;2023-05-10T06:14:28;5.97;;;4.13;;
19877;SDS011;10101;52.204;9.910;2023-05-10T06:16:58;6.70;;;4.40;;
19877;SDS011;10101;52.204;9.910;2023-05-10T06:19:25;5.47;;;4.33;;
19877;SDS011;10101;52.204;9.910;2023-05-10T06:22:02;6.87;;;4.37;;
19877;SDS011;10101;52.204;9.910;2023-05-10T06:24:31;5.10;;;4.17;;
19877;SDS011;10101;52.204;9.910;2023-05-10T06:27:00;4.87;;;4.00;;
19877;SDS011;10101;52.204;9.910;2023-05-10T06:29:27;5.50;;;4.30;;
19877;SDS011;10101;52.204;9.910;2023-05-10T06:31:57;4.40;;;3.93;;
19877;SDS011;10101;52.204;9.910;2023-05-10T06:34:24;7.40;;;4.60;;
19877;SDS011;10101;52.204;9.910;2023-05-10T06:36:52;5.23;;;4.20;;
19877;SDS011;10101;52.204;9.910;2023-05-10T06:39:30;6.50;;;4.37;;
19877;SDS011;10101;52.204;9.910;2023-05-10T06:42:16;4.47;;;3.93;;
19877;SDS011;10101;52.204;9.910;2023-05-10T06:44:44;5.83;;;3.87;;
19877;SDS011;10101;52.204;9.910;2023-05-10T06:47:13;7.37;;;4.40;;
19877;SDS011;10101;52.204;9.910;2023-05-10T06:49:42;9.80;;;4.07;;
19877;SDS011;10101;52.204;9.910;2023-05-10T06:52:18;6.77;;;4.07;;
19877;SDS011;10101;52.204;9.910;2023-05-10T06:54:51;8.60;;;4.40;;
19877;SDS011;10101;52.204;9.910;2023-05-10T06:57:23;6.03;;;4.30;;
19877;SDS011;10101;52.204;9.910;2023-05-10T06:59:50;5.53;;;4.27;;
19877;SDS011;10101;52.204;9.910;2023-05-10T07:02:18;5.20;;;4.20;;
19877;SDS011;10101;52.204;9.910;2023-05-10T07:04:50;4.57;;;4.03;;
19877;SDS011;10101;52.204;9.910;2023-05-10T07:07:23;7.60;;;4.27;;
19877;SDS011;10101;52.204;9.910;2023-05-10T07:09:55;7.70;;;4.73;;
19877;SDS011;10101;52.204;9.910;2023-05-10T07:12:29;5.83;;;3.87;;
19877;SDS011;10101;52.204;9.910;2023-05-10T07:14:56;5.10;;;3.93;;
19877;SDS011;10101;52.204;9.910;2023-05-10T07:17:24;6.43;;;4.10;;
19877;SDS011;10101;52.204;9.910;2023-05-10T07:19:58;5.63;;;4.47;;
19877;SDS011;10101;52.204;9.910;2023-05-10T07:22:27;6.63;;;3.97;;
19877;SDS011;10101;52.204;9.910;2023-05-10T07:24:56;4.70;;;4.00;;
19877;SDS011;10101;52.204;9.910;2023-05-10T07:27:25;6.03;;;3.90;;
19877;SDS011;10101;52.204;9.910;2023-05-10T07:29:56;4.23;;;3.50;;
19877;SDS011;10101;52.204;9.910;2023-05-10T07:32:23;4.37;;;3.37;;
19877;SDS011;10101;52.204;9.910;2023-05-10T07:34:54;4.43;;;3.20;;
19877;SDS011;10101;52.204;9.910;2023-05-10T07:37:21;3.67;;;2.90;;
19877;SDS011;10101;52.204;9.910;2023-05-10T07:39:51;3.87;;;3.40;;
19877;SDS011;10101;52.204;9.910;2023-05-10T07:42:26;5.57;;;3.33;;
19877;SDS011;10101;52.204;9.910;2023-05-10T07:44:58;4.43;;;3.50;;
19877;SDS011;10101;52.204;9.910;2023-05-10T07:47:31;5.03;;;3.00;;
19877;SDS011;10101;52.204;9.910;2023-05-10T07:49:59;4.00;;;3.53;;
19877;SDS011;10101;52.204;9.910;2023-05-10T07:52:26;5.03;;;2.93;;
19877;SDS011;10101;52.204;9.910;2023-05-10T07:54:54;3.67;;;2.80;;
19877;SDS011;10101;52.204;9.910;2023-05-10T07:57:22;2.93;;;2.63;;
19877;SDS011;10101;52.204;9.910;2023-05-10T07:59:49;3.60;;;2.70;;
19877;SDS011;10101;52.204;9.910;2023-05-10T08:02:21;2.50;;;2.30;;
19877;SDS011;10101;52.204;9.910;2023-05-10T08:04:51;4.87;;;2.70;;
19877;SDS011;10101;52.204;9.910;2023-05-10T08:07:21;3.73;;;2.40;;
19877;SDS011;10101;52.204;9.910;2023-05-10T08:09:51;3.43;;;2.07;;
19877;SDS011;10101;52.204;9.910;2023-05-10T08:12:18;2.50;;;2.10;;
19877;SDS011;10101;52.204;9.910;2023-05-10T08:14:45;2.00;;;1.80;;
19877;SDS011;10101;52.204;9.910;2023-05-10T08:17:14;2.30;;;2.10;;
19877;SDS011;10101;52.204;9.910;2023-05-10T08:19:45;5.20;;;2.10;;
19877;SDS011;10101;52.204;9.910;2023-05-10T08:22:14;2.47;;;2.27;;
19877;SDS011;10101;52.204;9.910;2023-05-10T08:24:43;2.47;;;2.27;;
19877;SDS011;10101;52.204;9.910;2023-05-10T08:27:10;3.30;;;2.20;;
19877;SDS011;10101;52.204;9.910;2023-05-10T08:29:38;2.30;;;2.10;;
19877;SDS011;10101;52.204;9.910;2023-05-10T08:32:06;2.50;;;2.30;;
19877;SDS011;10101;52.204;9.910;2023-05-10T08:34:35;2.40;;;2.10;;
19877;SDS011;10101;52.204;9.910;2023-05-10T08:37:07;3.13;;;2.10;;
19877;SDS011;10101;52.204;9.910;2023-05-10T08:39:35;3.43;;;2.20;;
19877;SDS011;10101;52.204;9.910;2023-05-10T08:42:04;2.47;;;1.93;;
19877;SDS011;10101;52.204;9.910;2023-05-10T08:44:35;3.13;;;1.90;;
19877;SDS011;10101;52.204;9.910;2023-05-10T08:47:04;14.30;;;6.93;;
19877;SDS011;10101;52.204;9.910;2023-05-10T08:49:37;8.80;;;4.93;;
19877;SDS011;10101;52.204;9.910;2023-05-10T08:52:06;2.27;;;1.80;;
19877;SDS011;10101;52.204;9.910;2023-05-10T08:54:34;1.70;;;1.47;;
19877;SDS011;10101;52.204;9.910;2023-05-10T08:57:01;1.20;;;1.00;;
19877;SDS011;10101;52.204;9.910;2023-05-10T08:59:29;0.80;;;0.80;;
19877;SDS011;10101;52.204;9.910;2023-05-10T09:01:59;1.87;;;1.37;;
19877;SDS011;10101;52.204;9.910;2023-05-10T09:04:29;1.10;;;1.00;;
19877;SDS011;10101;52.204;9.910;2023-05-10T09:06:57;1.30;;;1.20;;
19877;SDS011;10101;52.204;9.910;2023-05-10T09:09:26;2.57;;;1.37;;
19877;SDS011;10101;52.204;9.910;2023-05-10T09:11:54;0.90;;;0.90;;
19877;SDS011;10101;52.204;9.910;2023-05-10T09:14:25;2.10;;;1.33;;
19877;SDS011;10101;52.204;9.910;2023-05-10T09:16:53;0.67;;;0.67;;
19877;SDS011;10101;52.204;9.910;2023-05-10T09:19:21;1.53;;;0.70;;
19877;SDS011;10101;52.204;9.910;2023-05-10T09:21:48;0.70;;;0.70;;
19877;SDS011;10101;52.204;9.910;2023-05-10T09:24:15;0.50;;;0.50;;
19877;SDS011;10101;52.204;9.910;2023-05-10T09:26:48;0.50;;;0.50;;
19877;SDS011;10101;52.204;9.910;2023-05-10T09:29:16;0.40;;;0.40;;
19877;SDS011;10101;52.204;9.910;2023-05-10T09:31:44;0.60;;;0.50;;
19877;SDS011;10101;52.204;9.910;2023-05-10T09:34:16;0.50;;;0.50;;
19877;SDS011;10101;52.204;9.910;2023-05-10T09:36:53;0.83;;;0.50;;
19877;SDS011;10101;52.204;9.910;2023-05-10T09:39:31;1.17;;;0.60;;
19877;SDS011;10101;52.204;9.910;2023-05-10T09:42:02;0.70;;;0.70;;
19877;SDS011;10101;52.204;9.910;2023-05-10T09:44:35;1.50;;;0.60;;
19877;SDS011;10101;52.204;9.910;2023-05-10T09:47:03;0.97;;;0.70;;
19877;SDS011;10101;52.204;9.910;2023-05-10T09:49:32;1.23;;;0.70;;
19877;SDS011;10101;52.204;9.910;2023-05-10T09:52:00;0.90;;;0.90;;
19877;SDS011;10101;52.204;9.910;2023-05-10T09:54:28;0.60;;;0.60;;
19877;SDS011;10101;52.204;9.910;2023-05-10T09:56:56;2.03;;;0.80;;
19877;SDS011;10101;52.204;9.910;2023-05-10T09:59:26;0.70;;;0.70;;
19877;SDS011;10101;52.204;9.910;2023-05-10T10:01:55;0.70;;;0.70;;
19877;SDS011;10101;52.204;9.910;2023-05-10T10:04:23;1.67;;;0.60;;
19877;SDS011;10101;52.204;9.910;2023-05-10T10:07:00;0.83;;;0.70;;
19877;SDS011;10101;52.204;9.910;2023-05-10T10:09:31;0.60;;;0.60;;
19877;SDS011;10101;52.204;9.910;2023-05-10T10:12:10;2.10;;;0.90;;
19877;SDS011;10101;52.204;9.910;2023-05-10T10:14:42;0.90;;;0.90;;
19877;SDS011;10101;52.204;9.910;2023-05-10T10:17:27;0.80;;;0.80;;
19877;SDS011;10101;52.204;9.910;2023-05-10T10:20:16;0.90;;;0.90;;
19877;SDS011;10101;52.204;9.910;2023-05-10T10:23:13;1.43;;;0.80;;
19877;SDS011;10101;52.204;9.910;2023-05-10T10:25:43;1.10;;;0.70;;
19877;SDS011;10101;52.204;9.910;2023-05-10T10:28:16;0.70;;;0.70;;
19877;SDS011;10101;52.204;9.910;2023-05-10T10:30:52;1.97;;;1.00;;
19877;SDS011;10101;52.204;9.910;2023-05-10T10:33:33;1.00;;;1.00;;
19877;SDS011;10101;52.204;9.910;2023-05-10T10:36:06;1.10;;;1.10;;
19877;SDS011;10101;52.204;9.910;2023-05-10T10:38:37;1.20;;;1.13;;
19877;SDS011;10101;52.204;9.910;2023-05-10T10:41:31;1.50;;;1.10;;
19877;SDS011;10101;52.204;9.910;2023-05-10T10:47:00;1.77;;;1.23;;
19877;SDS011;10101;52.204;9.910;2023-05-10T10:49:34;1.90;;;1.30;;
19877;SDS011;10101;52.204;9.910;2023-05-10T10:52:15;1.73;;;1.20;;
19877;SDS011;10101;52.204;9.910;2023-05-10T10:54:51;1.90;;;1.50;;
19877;SDS011;10101;52.204;9.910;2023-05-10T10:57:23;5.27;;;1.40;;
19877;SDS011;10101;52.204;9.910;2023-05-10T10:59:51;1.70;;;1.60;;
19877;SDS011;10101;52.204;9.910;2023-05-10T11:02:45;2.10;;;1.50;;
19877;SDS011;10101;52.204;9.910;2023-05-10T11:08:13;3.13;;;1.90;;
19877;SDS011;10101;52.204;9.910;2023-05-10T11:10:51;4.40;;;1.93;;
19877;SDS011;10101;52.204;9.910;2023-05-10T11:13:29;2.67;;;2.00;;
19877;SDS011;10101;52.204;9.910;2023-05-10T11:15:57;2.30;;;1.97;;
19877;SDS011;10101;52.204;9.910;2023-05-10T11:18:27;2.13;;;1.87;;
19877;SDS011;10101;52.204;9.910;2023-05-10T11:20:56;2.50;;;1.83;;
19877;SDS011;10101;52.204;9.910;2023-05-10T11:23:29;2.53;;;1.97;;
19877;SDS011;10101;52.204;9.910;2023-05-10T11:25:57;3.30;;;2.10;;
19877;SDS011;10101;52.204;9.910;2023-05-10T11:28:25;4.73;;;2.07;;
19877;SDS011;10101;52.204;9.910;2023-05-10T11:30:53;2.97;;;2.23;;
19877;SDS011;10101;52.204;9.910;2023-05-10T11:33:21;2.30;;;2.10;;
19877;SDS011;10101;52.204;9.910;2023-05-10T11:35:49;2.53;;;1.90;;
19877;SDS011;10101;52.204;9.910;2023-05-10T11:38:16;4.50;;;2.33;;
19877;SDS011;10101;52.204;9.910;2023-05-10T11:40:42;2.77;;;2.30;;
19877;SDS011;10101;52.204;9.910;2023-05-10T11:43:09;4.90;;;2.07;;
19877;SDS011;10101;52.204;9.910;2023-05-10T11:45:37;2.23;;;1.77;;
19877;SDS011;10101;52.204;9.910;2023-05-10T11:48:04;2.37;;;1.63;;
19877;SDS011;10101;52.204;9.910;2023-05-10T11:50:31;3.47;;;2.00;;
19877;SDS011;10101;52.204;9.910;2023-05-10T11:52:59;2.80;;;1.73;;
19877;SDS011;10101;52.204;9.910;2023-05-10T11:55:26;4.03;;;1.87;;
19877;SDS011;10101;52.204;9.910;2023-05-10T11:57:55;3.87;;;2.40;;
19877;SDS011;10101;52.204;9.910;2023-05-10T12:00:26;2.87;;;1.90;;
19877;SDS011;10101;52.204;9.910;2023-05-10T12:02:53;3.87;;;2.17;;
19877;SDS011;10101;52.204;9.910;2023-05-10T12:05:20;4.23;;;2.00;;
19877;SDS011;10101;52.204;9.910;2023-05-10T12:07:47;2.20;;;1.70;;
19877;SDS011;10101;52.204;9.910;2023-05-10T12:10:15;3.40;;;2.27;;
19877;SDS011;10101;52.204;9.910;2023-05-10T12:12:43;2.83;;;2.10;;
19877;SDS011;10101;52.204;9.910;2023-05-10T12:15:10;3.60;;;1.50;;
19877;SDS011;10101;52.204;9.910;2023-05-10T12:17:38;3.40;;;2.00;;
19877;SDS011;10101;52.204;9.910;2023-05-10T12:20:18;2.83;;;1.77;;
19877;SDS011;10101;52.204;9.910;2023-05-10T12:22:47;3.43;;;2.10;;
19877;SDS011;10101;52.204;9.910;2023-05-10T12:25:16;4.00;;;1.83;;
19877;SDS011;10101;52.204;9.910;2023-05-10T12:27:50;2.67;;;1.50;;
19877;SDS011;10101;52.204;9.910;2023-05-10T12:30:21;2.20;;;1.67;;
19877;SDS011;10101;52.204;9.910;2023-05-10T12:32:48;2.77;;;1.70;;
19877;SDS011;10101;52.204;9.910;2023-05-10T12:35:16;2.63;;;1.80;;
19877;SDS011;10101;52.204;9.910;2023-05-10T12:37:45;3.40;;;1.67;;
19877;SDS011;10101;52.204;9.910;2023-05-10T12:40:12;4.50;;;2.60;;
19877;SDS011;10101;52.204;9.910;2023-05-10T12:42:41;3.73;;;2.43;;
19877;SDS011;10101;52.204;9.910;2023-05-10T12:45:10;5.50;;;2.87;;
19877;SDS011;10101;52.204;9.910;2023-05-10T12:47:37;3.90;;;2.30;;
19877;SDS011;10101;52.204;9.910;2023-05-10T12:50:05;4.50;;;2.60;;
19877;SDS011;10101;52.204;9.910;2023-05-10T12:52:32;3.80;;;2.57;;
19877;SDS011;10101;52.204;9.910;2023-05-10T12:54:59;4.57;;;2.87;;
19877;SDS011;10101;52.204;9.910;2023-05-10T12:57:26;3.80;;;2.50;;
19877;SDS011;10101;52.204;9.910;2023-05-10T12:59:55;3.60;;;2.07;;
19877;SDS011;10101;52.204;9.910;2023-05-10T13:02:22;2.73;;;2.40;;
19877;SDS011;10101;52.204;9.910;2023-05-10T13:04:49;2.63;;;1.77;;
19877;SDS011;10101;52.204;9.910;2023-05-10T13:07:16;4.07;;;2.00;;
19877;SDS011;10101;52.204;9.910;2023-05-10T13:09:43;3.90;;;2.07;;
19877;SDS011;10101;52.204;9.910;2023-05-10T13:12:09;2.40;;;1.73;;
19877;SDS011;10101;52.204;9.910;2023-05-10T13:14:36;2.73;;;1.80;;
19877;SDS011;10101;52.204;9.910;2023-05-10T13:17:06;4.77;;;2.03;;
19877;SDS011;10101;52.204;9.910;2023-05-10T13:19:33;2.67;;;2.07;;
19877;SDS011;10101;52.204;9.910;2023-05-10T13:22:00;3.37;;;1.90;;
19877;SDS011;10101;52.204;9.910;2023-05-10T13:24:27;6.67;;;2.07;;
19877;SDS011;10101;52.204;9.910;2023-05-10T13:26:54;3.53;;;2.10;;
19877;SDS011;10101;52.204;9.910;2023-05-10T13:29:21;3.83;;;2.40;;
19877;SDS011;10101;52.204;9.910;2023-05-10T13:31:48;3.70;;;2.30;;
19877;SDS011;10101;52.204;9.910;2023-05-10T13:34:16;3.70;;;2.10;;
19877;SDS011;10101;52.204;9.910;2023-05-10T13:36:45;2.00;;;1.43;;
19877;SDS011;10101;52.204;9.910;2023-05-10T13:39:12;3.20;;;1.67;;
19877;SDS011;10101;52.204;9.910;2023-05-10T13:41:39;1.43;;;1.23;;
19877;SDS011;10101;52.204;9.910;2023-05-10T13:44:06;1.57;;;1.30;;
19877;SDS011;10101;52.204;9.910;2023-05-10T13:46:33;2.07;;;1.10;;
19877;SDS011;10101;52.204;9.910;2023-05-10T13:49:00;2.27;;;1.70;;
19877;SDS011;10101;52.204;9.910;2023-05-10T13:51:28;1.50;;;1.40;;
19877;SDS011;10101;52.204;9.910;2023-05-10T13:53:56;1.60;;;1.50;;
19877;SDS011;10101;52.204;9.910;2023-05-10T13:56:23;2.70;;;1.80;;
19877;SDS011;10101;52.204;9.910;2023-05-10T13:58:50;2.03;;;1.80;;
19877;SDS011;10101;52.204;9.910;2023-05-10T14:01:17;1.50;;;1.40;;
19877;SDS011;10101;52.204;9.910;2023-05-10T14:03:44;3.07;;;1.53;;
19877;SDS011;10101;52.204;9.910;2023-05-10T14:06:11;3.77;;;1.40;;
19877;SDS011;10101;52.204;9.910;2023-05-10T14:08:39;1.30;;;1.20;;
19877;SDS011;10101;52.204;9.910;2023-05-10T14:11:06;4.80;;;1.55;;
19877;SDS011;10101;52.204;9.910;2023-05-10T14:13:33;3.33;;;1.80;;
19877;SDS011;10101;52.204;9.910;2023-05-10T14:16:00;2.43;;;1.50;;
19877;SDS011;10101;52.204;9.910;2023-05-10T14:18:27;3.00;;;1.40;;
19877;SDS011;10101;52.204;9.910;2023-05-10T14:20:54;4.77;;;1.33;;
19877;SDS011;10101;52.204;9.910;2023-05-10T14:23:21;1.65;;;1.20;;
19877;SDS011;10101;52.204;9.910;2023-05-10T14:25:52;1.27;;;1.17;;
19877;SDS011;10101;52.204;9.910;2023-05-10T14:28:19;3.87;;;1.43;;
19877;SDS011;10101;52.204;9.910;2023-05-10T14:30:45;1.80;;;1.30;;
19877;SDS011;10101;52.204;9.910;2023-05-10T14:33:12;3.07;;;1.40;;
19877;SDS011;10101;52.204;9.910;2023-05-10T14:35:39;2.38;;;1.35;;
19877;SDS011;10101;52.204;9.910;2023-05-10T14:38:06;1.45;;;1.35;;
19877;SDS011;10101;52.204;9.910;2023-05-10T14:40:33;1.35;;;1.10;;
19877;SDS011;10101;52.204;9.910;2023-05-10T14:43:02;2.92;;;1.35;;
19877;SDS011;10101;52.204;9.910;2023-05-10T14:45:28;2.53;;;1.20;;
19877;SDS011;10101;52.204;9.910;2023-05-10T14:47:56;3.17;;;1.50;;
19877;SDS011;10101;52.204;9.910;2023-05-10T14:50:23;2.88;;;1.50;;
19877;SDS011;10101;52.204;9.910;2023-05-10T14:52:50;2.17;;;1.48;;
19877;SDS011;10101;52.204;9.910;2023-05-10T14:55:17;2.55;;;1.75;;
19877;SDS011;10101;52.204;9.910;2023-05-10T14:57:43;1.77;;;1.42;;
19877;SDS011;10101;52.204;9.910;2023-05-10T15:00:14;1.77;;;1.40;;
19877;SDS011;10101;52.204;9.910;2023-05-10T15:02:41;2.97;;;1.70;;
19877;SDS011;10101;52.204;9.910;2023-05-10T15:05:08;2.10;;;1.45;;
19877;SDS011;10101;52.204;9.910;2023-05-10T15:07:35;2.20;;;1.27;;
19877;SDS011;10101;52.204;9.910;2023-05-10T15:10:02;2.08;;;1.33;;
19877;SDS011;10101;52.204;9.910;2023-05-10T15:12:29;1.88;;;1.40;;
19877;SDS011;10101;52.204;9.910;2023-05-10T15:14:56;2.70;;;1.45;;
19877;SDS011;10101;52.204;9.910;2023-05-10T15:17:24;3.15;;;1.50;;